Time;durP1;ratioP1;P1;durP2;ratioP2;P2;SDS_P1;SDS_P2;PMS_P1;PMS_P2;Temp;Humidity;BMP_temperature;BMP_pressure;BME280_temperature;BME280_humidity;BME280_pressure;Samples;Min_cycle;Max_cycle;Signal;HPM_P1;HPM_P2
2022/04/29 00:02:06;;;;;;;8.52;3.88;;;5.40;99.90;;;;;;4983566;28;20414;-48
2022/04/29 00:04:31;;;;;;;6.22;3.95;;;5.30;99.90;;;;;;4972420;28;20041;-52
2022/04/29 00:06:57;;;;;;;7.30;3.90;;;5.30;99.90;;;;;;4978168;28;20027;-49
2022/04/29 00:09:22;;;;;;;4.13;3.15;;;5.30;99.90;;;;;;4991566;28;20034;-48
2022/04/29 00:11:50;;;;;;;9.05;4.10;;;5.20;99.90;;;;;;4989301;28;20089;-50
2022/04/29 00:14:15;;;;;;;11.43;5.03;;;5.20;99.90;;;;;;4990070;28;20054;-47
2022/04/29 00:16:41;;;;;;;8.60;4.13;;;5.10;99.90;;;;;;4979582;28;20057;-48
2022/04/29 00:19:06;;;;;;;8.60;4.20;;;5.10;99.90;;;;;;4971946;28;20042;-49
2022/04/29 00:21:32;;;;;;;7.05;4.22;;;5.00;99.90;;;;;;4971730;28;20046;-48
2022/04/29 00:23:58;;;;;;;8.65;4.82;;;5.00;99.90;;;;;;4984308;28;20034;-48
2022/04/29 00:26:23;;;;;;;7.35;3.65;;;5.00;99.90;;;;;;4989669;28;20080;-48
2022/04/29 00:28:49;;;;;;;9.27;4.25;;;5.00;99.90;;;;;;4987878;28;20039;-50
2022/04/29 00:31:15;;;;;;;7.88;4.43;;;5.00;99.90;;;;;;4977118;28;20042;-50
2022/04/29 00:33:40;;;;;;;13.75;4.60;;;5.00;99.90;;;;;;4974179;28;20051;-48
2022/04/29 00:36:06;;;;;;;11.77;5.25;;;5.00;99.90;;;;;;4970747;28;20027;-49
2022/04/29 00:38:32;;;;;;;8.07;4.72;;;5.00;99.90;;;;;;4954243;28;20045;-51
2022/04/29 00:40:58;;;;;;;8.30;4.18;;;5.00;99.90;;;;;;4969457;28;20499;-51
2022/04/29 00:43:23;;;;;;;11.18;4.72;;;5.00;99.90;;;;;;4971067;28;20043;-51
2022/04/29 00:45:50;;;;;;;11.75;4.85;;;4.90;99.90;;;;;;4983886;28;20042;-51
2022/04/29 00:48:16;;;;;;;7.35;4.63;;;4.90;99.90;;;;;;4990547;28;20096;-50
2022/04/29 00:50:42;;;;;;;10.10;4.93;;;4.90;99.90;;;;;;4990539;28;20030;-50
2022/04/29 00:53:09;;;;;;;11.57;5.13;;;4.90;99.90;;;;;;4972446;28;20417;-49
2022/04/29 00:55:38;;;;;;;8.35;5.13;;;4.80;99.90;;;;;;4984283;28;20048;-48
2022/04/29 00:58:20;;;;;;;11.82;5.13;;;4.80;99.90;;;;;;4968458;28;20098;-50
2022/04/29 01:00:46;;;;;;;10.55;4.90;;;4.80;99.90;;;;;;4969101;28;20034;-50
2022/04/29 01:03:14;;;;;;;6.97;4.60;;;4.70;99.90;;;;;;4975759;28;20041;-48
2022/04/29 01:05:40;;;;;;;9.57;5.05;;;4.80;99.90;;;;;;4975750;28;20513;-48
2022/04/29 01:08:07;;;;;;;11.82;6.00;;;4.70;99.90;;;;;;4989263;28;20063;-48
2022/04/29 01:10:32;;;;;;;14.68;7.18;;;4.70;99.90;;;;;;4989986;28;20058;-49
2022/04/29 01:13:01;;;;;;;12.98;5.95;;;4.60;99.90;;;;;;4989642;28;20488;-46
2022/04/29 01:15:27;;;;;;;8.65;5.50;;;4.60;99.90;;;;;;4978384;28;20031;-50
2022/04/29 01:18:01;;;;;;;12.38;5.60;;;4.60;99.90;;;;;;4967631;28;20670;-50
2022/04/29 01:20:30;;;;;;;6.65;4.53;;;4.60;99.90;;;;;;4957002;28;20034;-54
2022/04/29 01:22:56;;;;;;;6.32;4.65;;;4.60;99.90;;;;;;4972687;28;20105;-48
2022/04/29 01:25:22;;;;;;;13.77;6.85;;;4.60;99.90;;;;;;4990285;28;20446;-48
2022/04/29 01:27:49;;;;;;;8.13;5.85;;;4.60;99.90;;;;;;4978192;28;20062;-49
2022/04/29 01:30:18;;;;;;;11.90;6.25;;;4.50;99.90;;;;;;4970276;28;20027;-49
2022/04/29 01:32:44;;;;;;;11.00;6.00;;;4.50;99.90;;;;;;4952765;28;20550;-49
2022/04/29 01:35:12;;;;;;;11.90;5.65;;;4.50;99.90;;;;;;4970662;28;20398;-50
2022/04/29 01:37:38;;;;;;;13.82;6.35;;;4.50;99.90;;;;;;4953463;28;20030;-48
2022/04/29 01:40:06;;;;;;;11.82;5.97;;;4.50;99.90;;;;;;4970904;28;20113;-48
2022/04/29 01:42:32;;;;;;;10.30;5.30;;;4.40;99.90;;;;;;4970634;28;20061;-50
2022/04/29 01:44:58;;;;;;;13.52;5.65;;;4.50;99.90;;;;;;4971004;28;20038;-50
2022/04/29 01:47:23;;;;;;;11.50;5.30;;;4.40;99.90;;;;;;4975256;28;20037;-51
2022/04/29 01:49:49;;;;;;;14.23;5.63;;;4.40;99.90;;;;;;4971778;28;20046;-53
2022/04/29 01:52:15;;;;;;;11.68;6.00;;;4.40;99.90;;;;;;4972307;28;20023;-51
2022/04/29 01:54:40;;;;;;;10.02;5.97;;;4.50;99.90;;;;;;4970481;28;20074;-50
2022/04/29 01:57:07;;;;;;;9.70;5.13;;;4.50;99.90;;;;;;4970687;28;20034;-48
2022/04/29 01:59:33;;;;;;;8.65;5.53;;;4.50;99.90;;;;;;4970442;28;20049;-50
2022/04/29 02:02:00;;;;;;;11.50;5.95;;;4.50;99.90;;;;;;4974137;28;20035;-49
2022/04/29 02:04:26;;;;;;;8.30;5.97;;;4.50;99.90;;;;;;4975668;28;20423;-49
2022/04/29 02:06:51;;;;;;;12.52;6.13;;;4.50;99.90;;;;;;4992974;28;20038;-50
2022/04/29 02:09:17;;;;;;;6.57;5.35;;;4.50;99.90;;;;;;4992373;28;20038;-48
2022/04/29 02:12:03;;;;;;;12.82;6.00;;;4.50;99.90;;;;;;4979551;28;20501;-48
2022/04/29 02:14:29;;;;;;;11.07;5.70;;;4.40;99.90;;;;;;4974041;28;20031;-48
2022/04/29 02:16:58;;;;;;;12.35;6.97;;;4.50;99.90;;;;;;4974372;28;20019;-48
2022/04/29 02:19:24;;;;;;;10.40;5.75;;;4.40;99.90;;;;;;4973391;28;20050;-50
2022/04/29 02:21:50;;;;;;;10.35;6.07;;;4.40;99.90;;;;;;4973677;28;20183;-50
2022/04/29 02:24:15;;;;;;;10.27;5.68;;;4.40;99.90;;;;;;4974431;28;20078;-50
2022/04/29 02:26:41;;;;;;;14.27;6.53;;;4.40;99.90;;;;;;4974081;28;20550;-48
2022/04/29 02:29:07;;;;;;;7.57;5.30;;;4.40;99.90;;;;;;4973976;28;20046;-52
2022/04/29 02:31:33;;;;;;;16.50;6.60;;;4.40;99.90;;;;;;4973540;28;20034;-50
2022/04/29 02:33:59;;;;;;;12.02;5.72;;;4.40;99.90;;;;;;4975198;28;20054;-50
2022/04/29 02:36:24;;;;;;;7.35;5.25;;;4.40;99.90;;;;;;4973865;28;20124;-49
2022/04/29 02:38:50;;;;;;;10.82;5.88;;;4.40;99.90;;;;;;4974161;28;20027;-48
2022/04/29 02:41:15;;;;;;;8.00;6.47;;;4.40;99.90;;;;;;4993087;28;20375;-50
2022/04/29 02:43:41;;;;;;;10.43;5.95;;;4.40;99.90;;;;;;4978929;28;20038;-50
2022/04/29 02:46:07;;;;;;;14.70;5.40;;;4.30;99.90;;;;;;4973799;28;20038;-48
2022/04/29 02:48:33;;;;;;;13.60;6.72;;;4.30;99.90;;;;;;4973568;28;20118;-51
2022/04/29 02:50:59;;;;;;;8.38;6.28;;;4.30;99.90;;;;;;4973393;28;20043;-50
2022/04/29 02:53:24;;;;;;;8.40;5.45;;;4.30;99.90;;;;;;4974461;28;20031;-49
2022/04/29 02:55:50;;;;;;;11.68;7.10;;;4.30;99.90;;;;;;4973813;28;20027;-49
2022/04/29 02:58:15;;;;;;;14.43;6.43;;;4.20;99.90;;;;;;4973727;28;20106;-48
2022/04/29 03:00:41;;;;;;;12.15;5.55;;;4.20;99.90;;;;;;4972239;28;20112;-49
2022/04/29 03:03:06;;;;;;;9.75;5.90;;;4.20;99.90;;;;;;4966611;28;20035;-49
2022/04/29 03:05:32;;;;;;;12.32;6.63;;;4.20;99.90;;;;;;4992631;28;20057;-50
2022/04/29 03:07:58;;;;;;;8.90;6.63;;;4.20;99.90;;;;;;4992398;28;20034;-49
2022/04/29 03:10:23;;;;;;;9.25;5.47;;;4.20;99.90;;;;;;4990412;28;20088;-50
2022/04/29 03:12:49;;;;;;;15.85;6.68;;;4.20;99.90;;;;;;4989429;28;20081;-49
2022/04/29 03:15:17;;;;;;;9.85;5.72;;;4.10;99.90;;;;;;4980374;28;20043;-49
2022/04/29 03:20:36;;;;;;;13.85;6.35;;;4.20;99.90;;;;;;4973139;28;20045;-49
2022/04/29 03:23:02;;;;;;;8.25;5.50;;;4.20;99.90;;;;;;4973028;28;20041;-52
2022/04/29 03:25:28;;;;;;;9.57;6.20;;;4.20;99.90;;;;;;4973125;28;20042;-49
2022/04/29 03:27:53;;;;;;;11.93;7.35;;;4.20;99.90;;;;;;4977892;28;20407;-49
2022/04/29 03:30:19;;;;;;;9.13;5.78;;;4.20;99.90;;;;;;4972699;28;20428;-51
2022/04/29 03:32:56;;;;;;;10.32;5.95;;;4.20;99.90;;;;;;4973801;28;20022;-51
2022/04/29 03:35:22;;;;;;;11.98;6.38;;;4.20;99.90;;;;;;4972757;28;20039;-50
2022/04/29 03:37:51;;;;;;;10.02;6.03;;;4.20;99.90;;;;;;4973080;28;20034;-49
2022/04/29 03:40:20;;;;;;;17.88;6.70;;;4.20;99.90;;;;;;4973001;28;20119;-51
2022/04/29 03:42:46;;;;;;;11.52;6.22;;;4.20;99.90;;;;;;4973793;28;20030;-50
2022/04/29 03:45:12;;;;;;;11.98;6.47;;;4.10;99.90;;;;;;4972944;28;20039;-55
2022/04/29 03:47:37;;;;;;;12.27;6.72;;;4.20;99.90;;;;;;4972935;28;20043;-53
2022/04/29 03:50:04;;;;;;;12.18;6.93;;;4.10;99.90;;;;;;4972335;28;20047;-50
2022/04/29 03:52:30;;;;;;;12.13;7.30;;;4.10;99.90;;;;;;4973374;28;20034;-52
2022/04/29 03:54:56;;;;;;;12.07;7.18;;;4.10;99.90;;;;;;4980457;28;20038;-55
2022/04/29 03:57:21;;;;;;;11.20;6.38;;;4.20;99.90;;;;;;4974059;28;20030;-48
2022/04/29 03:59:48;;;;;;;9.80;6.15;;;4.10;99.90;;;;;;4973983;28;20478;-51
2022/04/29 04:02:14;;;;;;;8.82;6.55;;;4.10;99.90;;;;;;4990869;28;20098;-49
2022/04/29 04:04:40;;;;;;;10.02;6.65;;;4.10;99.90;;;;;;4976225;28;20535;-53
2022/04/29 04:07:05;;;;;;;11.18;6.97;;;4.10;99.90;;;;;;4956496;28;20101;-52
2022/04/29 04:09:31;;;;;;;14.00;6.82;;;4.10;99.90;;;;;;4972312;28;20054;-51
2022/04/29 04:11:57;;;;;;;10.75;7.15;;;4.10;99.90;;;;;;4973930;28;20446;-53
2022/04/29 04:14:23;;;;;;;12.90;7.28;;;4.10;99.90;;;;;;4972137;28;20665;-50
2022/04/29 04:16:49;;;;;;;13.88;7.18;;;4.10;99.90;;;;;;4972357;28;20030;-53
2022/04/29 04:19:14;;;;;;;16.40;7.93;;;4.10;99.90;;;;;;4972877;28;20039;-52
2022/04/29 04:21:40;;;;;;;10.35;6.35;;;4.10;99.90;;;;;;4982509;28;20090;-52
2022/04/29 04:24:07;;;;;;;13.48;7.00;;;4.20;99.90;;;;;;4986669;28;20030;-53
2022/04/29 04:26:32;;;;;;;12.07;6.57;;;4.20;99.90;;;;;;4990462;28;21331;-50
2022/04/29 04:28:58;;;;;;;8.98;6.35;;;4.20;99.90;;;;;;4991127;28;20525;-51
2022/04/29 04:31:24;;;;;;;14.25;7.20;;;4.20;99.90;;;;;;4990351;28;20391;-52
2022/04/29 04:33:51;;;;;;;13.00;7.13;;;4.20;99.90;;;;;;4989005;28;20018;-53
2022/04/29 04:36:16;;;;;;;8.00;6.47;;;4.20;99.90;;;;;;4988837;28;20084;-51
2022/04/29 04:38:42;;;;;;;10.98;6.57;;;4.20;99.90;;;;;;4991030;28;20026;-50
2022/04/29 04:41:08;;;;;;;13.32;7.45;;;4.20;99.90;;;;;;4989776;28;20030;-52
2022/04/29 04:43:35;;;;;;;12.52;6.15;;;4.30;99.90;;;;;;4972858;28;20022;-55
2022/04/29 04:46:01;;;;;;;10.35;6.53;;;4.30;99.90;;;;;;4990428;28;20022;-52
2022/04/29 04:48:26;;;;;;;13.43;6.43;;;4.30;99.90;;;;;;4990742;28;20066;-50
2022/04/29 04:50:53;;;;;;;14.68;7.40;;;4.30;99.90;;;;;;4989853;28;20034;-50
2022/04/29 04:53:19;;;;;;;9.30;6.68;;;4.40;99.90;;;;;;4988195;28;20027;-53
2022/04/29 04:55:44;;;;;;;11.70;6.60;;;4.40;99.90;;;;;;4989397;28;20038;-52
2022/04/29 04:58:10;;;;;;;14.35;7.45;;;4.40;99.90;;;;;;4991049;28;20113;-54
2022/04/29 05:00:36;;;;;;;14.65;6.88;;;4.40;99.90;;;;;;4990810;28;20113;-52
2022/04/29 05:03:02;;;;;;;9.45;6.60;;;4.50;99.90;;;;;;4968222;28;20038;-51
2022/04/29 05:05:27;;;;;;;15.80;7.22;;;4.50;99.90;;;;;;4974584;28;20403;-50
2022/04/29 05:07:53;;;;;;;7.88;6.35;;;4.50;99.90;;;;;;4990718;28;20427;-52
2022/04/29 05:10:19;;;;;;;9.48;6.57;;;4.60;99.90;;;;;;4988047;28;20057;-51
2022/04/29 05:12:46;;;;;;;11.05;7.03;;;4.60;99.90;;;;;;4988981;28;20019;-48
2022/04/29 05:15:14;;;;;;;10.25;6.65;;;4.60;99.90;;;;;;4977708;28;20018;-51
2022/04/29 05:17:40;;;;;;;12.27;7.10;;;4.70;99.90;;;;;;4976271;28;20046;-50
2022/04/29 05:20:07;;;;;;;11.77;5.85;;;4.70;99.90;;;;;;4974260;28;20038;-54
2022/04/29 05:22:32;;;;;;;9.88;6.93;;;4.70;99.90;;;;;;4972930;28;20420;-52
2022/04/29 05:24:58;;;;;;;8.77;6.30;;;4.70;99.90;;;;;;4980466;28;20030;-51
2022/04/29 05:27:24;;;;;;;10.40;7.15;;;4.80;99.90;;;;;;4975752;28;20443;-50
2022/04/29 05:29:50;;;;;;;8.95;6.25;;;4.80;99.90;;;;;;4990137;28;20030;-51
2022/04/29 05:32:16;;;;;;;15.32;7.00;;;4.80;99.90;;;;;;4973605;28;20745;-50
2022/04/29 05:34:42;;;;;;;10.13;6.63;;;4.90;99.90;;;;;;4969923;28;20494;-51
2022/04/29 05:37:08;;;;;;;11.15;6.53;;;4.90;99.90;;;;;;4967893;28;20033;-49
2022/04/29 05:42:23;;;;;;;11.05;6.55;;;5.00;99.90;;;;;;4989805;28;20121;-50
2022/04/29 05:44:49;;;;;;;10.50;6.05;;;5.10;99.90;;;;;;4984104;28;20046;-51
2022/04/29 05:47:14;;;;;;;11.27;6.90;;;5.10;99.90;;;;;;4970496;28;20047;-52
2022/04/29 05:49:40;;;;;;;13.55;7.13;;;5.20;99.90;;;;;;4970600;28;20041;-50
2022/04/29 05:52:07;;;;;;;9.30;7.03;;;5.20;99.90;;;;;;4973989;28;20085;-51
2022/04/29 05:54:33;;;;;;;13.60;6.57;;;5.20;99.90;;;;;;4989533;28;20081;-51
2022/04/29 05:56:59;;;;;;;8.75;6.03;;;5.20;99.90;;;;;;4986697;28;20038;-52
2022/04/29 05:59:25;;;;;;;7.25;5.80;;;5.20;99.90;;;;;;4970233;28;20021;-51
2022/04/29 06:01:51;;;;;;;12.68;6.28;;;5.30;99.90;;;;;;4970051;28;20030;-51
2022/04/29 06:04:16;;;;;;;11.57;6.53;;;5.30;99.90;;;;;;4970608;28;20030;-52
2022/04/29 06:06:42;;;;;;;11.80;6.35;;;5.30;99.90;;;;;;4976519;28;20030;-52
2022/04/29 06:09:08;;;;;;;10.23;5.78;;;5.30;99.90;;;;;;4990059;28;20065;-51
2022/04/29 06:11:34;;;;;;;9.80;6.18;;;5.40;99.90;;;;;;4981067;28;20026;-51
2022/04/29 06:13:59;;;;;;;9.80;6.13;;;5.50;99.90;;;;;;4971770;28;20027;-50
2022/04/29 06:16:26;;;;;;;7.30;5.32;;;5.60;99.90;;;;;;4981366;28;20018;-51
2022/04/29 06:18:51;;;;;;;12.73;6.03;;;5.70;99.90;;;;;;4970249;28;20045;-50
2022/04/29 06:21:18;;;;;;;6.05;5.43;;;5.70;99.90;;;;;;4970625;28;20519;-51
2022/04/29 06:23:44;;;;;;;11.20;6.18;;;5.90;99.90;;;;;;4971300;28;20400;-48
2022/04/29 06:26:10;;;;;;;11.20;5.82;;;6.00;99.90;;;;;;4977871;28;20038;-51
2022/04/29 06:28:36;;;;;;;12.13;5.13;;;6.30;99.90;;;;;;4974334;28;20022;-50
2022/04/29 06:31:03;;;;;;;15.93;5.47;;;6.50;99.90;;;;;;4970858;28;20495;-49
2022/04/29 06:33:33;;;;;;;9.55;4.95;;;6.60;99.90;;;;;;4958842;28;20287;-52
2022/04/29 06:35:59;;;;;;;12.13;5.13;;;6.80;99.90;;;;;;4988908;28;20092;-50
2022/04/29 06:38:25;;;;;;;8.52;4.38;;;6.90;99.90;;;;;;4970079;28;20046;-49
2022/04/29 06:40:52;;;;;;;6.95;4.00;;;7.10;99.90;;;;;;4970205;28;20058;-50
2022/04/29 06:43:18;;;;;;;5.45;4.40;;;7.30;99.90;;;;;;4975849;28;20038;-49
2022/04/29 06:45:44;;;;;;;8.18;4.35;;;7.50;99.90;;;;;;4974736;28;20093;-49
2022/04/29 06:48:10;;;;;;;6.82;4.32;;;7.70;99.90;;;;;;4973883;28;20031;-50
2022/04/29 06:50:35;;;;;;;8.23;4.43;;;7.80;99.90;;;;;;4982986;28;20086;-48
2022/04/29 06:53:01;;;;;;;8.07;4.00;;;8.00;99.90;;;;;;4977639;28;20033;-50
2022/04/29 06:55:27;;;;;;;6.70;3.95;;;8.20;99.90;;;;;;4993192;28;20105;-48
2022/04/29 06:57:53;;;;;;;8.18;3.15;;;8.20;99.90;;;;;;4993009;28;20030;-51
2022/04/29 07:00:19;;;;;;;7.32;3.08;;;8.50;99.90;;;;;;4993067;28;20027;-49
2022/04/29 07:02:45;;;;;;;7.03;3.10;;;8.70;99.90;;;;;;4992582;28;20112;-49
2022/04/29 07:05:11;;;;;;;7.25;4.15;;;9.00;99.90;;;;;;4992942;28;20027;-49
2022/04/29 07:07:36;;;;;;;6.93;4.50;;;9.10;99.90;;;;;;4993083;28;20105;-53
2022/04/29 07:10:03;;;;;;;8.35;2.90;;;9.30;99.90;;;;;;4992748;28;20508;-49
2022/04/29 07:12:31;;;;;;;6.85;2.65;;;9.40;99.90;;;;;;4992561;28;20034;-49
2022/04/29 07:14:57;;;;;;;5.35;2.33;;;9.40;99.90;;;;;;4993001;28;20050;-49
2022/04/29 07:17:23;;;;;;;6.60;2.53;;;9.50;99.90;;;;;;4992734;28;20097;-49
2022/04/29 07:19:53;;;;;;;5.00;2.40;;;9.60;99.90;;;;;;4992994;28;20110;-51
2022/04/29 07:22:19;;;;;;;4.15;2.58;;;9.80;99.90;;;;;;4992407;28;20486;-53
2022/04/29 07:24:45;;;;;;;4.72;3.00;;;10.20;99.90;;;;;;4974847;28;20027;-49
2022/04/29 07:27:13;;;;;;;6.78;3.08;;;10.60;99.90;;;;;;4981058;28;20130;-49
2022/04/29 07:29:38;;;;;;;6.10;2.97;;;10.90;99.90;;;;;;4987031;28;20030;-48
2022/04/29 07:32:04;;;;;;;4.53;2.38;;;11.00;99.90;;;;;;4975855;28;20557;-50
2022/04/29 07:42:42;;;;;;;5.60;2.60;;;11.40;99.90;;;;;;4965957;28;20458;-50
2022/04/29 07:45:08;;;;;;;3.78;1.58;;;11.40;99.90;;;;;;4972715;28;20118;-49
2022/04/29 07:47:36;;;;;;;4.78;1.90;;;11.70;99.90;;;;;;4972698;28;20069;-51
2022/04/29 07:50:03;;;;;;;4.40;2.08;;;12.10;99.90;;;;;;4972751;28;20043;-49
2022/04/29 07:52:28;;;;;;;6.00;1.90;;;12.10;99.90;;;;;;4972427;28;20114;-53
2022/04/29 07:54:54;;;;;;;4.50;1.65;;;12.20;99.90;;;;;;4955754;28;20117;-49
2022/04/29 07:57:19;;;;;;;3.78;2.08;;;12.10;99.90;;;;;;4972026;28;20227;-52
2022/04/29 07:59:45;;;;;;;5.35;1.85;;;11.90;99.90;;;;;;4973347;28;20026;-51
2022/04/29 08:02:10;;;;;;;4.63;1.88;;;11.90;99.90;;;;;;4972371;28;20035;-50
2022/04/29 08:04:36;;;;;;;7.82;1.80;;;12.00;99.90;;;;;;4989050;28;20034;-52
2022/04/29 08:07:02;;;;;;;4.32;2.17;;;11.80;99.90;;;;;;4991507;28;20143;-53
2022/04/29 08:09:28;;;;;;;2.28;1.40;;;11.60;99.90;;;;;;4990313;28;20117;-53
2022/04/29 08:11:53;;;;;;;8.23;3.00;;;11.50;99.90;;;;;;4989779;28;20117;-50
2022/04/29 08:14:20;;;;;;;3.67;2.10;;;11.50;99.90;;;;;;4991576;28;20030;-52
2022/04/29 08:16:46;;;;;;;2.92;2.45;;;11.50;99.90;;;;;;4991540;28;20106;-50
2022/04/29 08:19:13;;;;;;;4.88;2.47;;;11.30;99.90;;;;;;4991813;28;20110;-52
2022/04/29 08:21:38;;;;;;;4.18;2.20;;;11.30;99.90;;;;;;4983463;28;20057;-50
2022/04/29 08:24:04;;;;;;;5.97;2.08;;;11.30;99.90;;;;;;4972796;28;20080;-51
2022/04/29 08:26:30;;;;;;;3.80;2.25;;;11.00;99.90;;;;;;4973012;28;20039;-49
2022/04/29 08:28:56;;;;;;;10.40;2.53;;;11.10;99.90;;;;;;4986950;28;20052;-49
2022/04/29 08:31:22;;;;;;;5.40;1.80;;;11.30;99.90;;;;;;4990874;28;20512;-53
2022/04/29 08:33:48;;;;;;;5.60;2.45;;;11.50;99.90;;;;;;4972298;28;20109;-57
2022/04/29 08:36:15;;;;;;;7.72;2.35;;;11.40;99.90;;;;;;4971811;28;20165;-57
2022/04/29 08:38:41;;;;;;;2.30;2.08;;;11.40;99.90;;;;;;4972638;28;20027;-56
2022/04/29 08:41:07;;;;;;;5.88;2.53;;;11.50;99.90;;;;;;4990983;28;20030;-54
2022/04/29 08:43:33;;;;;;;4.32;1.80;;;11.70;99.90;;;;;;4989582;28;20128;-54
2022/04/29 08:46:00;;;;;;;3.38;2.40;;;11.80;99.90;;;;;;4991067;28;20069;-54
2022/04/29 08:48:28;;;;;;;5.00;2.20;;;11.70;99.90;;;;;;4990351;28;20128;-54
2022/04/29 08:50:56;;;;;;;4.10;2.08;;;11.60;99.90;;;;;;4990944;28;20041;-56
2022/04/29 08:53:22;;;;;;;7.80;2.45;;;11.90;99.90;;;;;;4988641;28;20082;-53
2022/04/29 08:58:37;;;;;;;5.07;2.35;;;12.10;99.90;;;;;;4989495;28;20068;-54
2022/04/29 09:01:13;;;;;;;5.38;2.58;;;12.30;99.90;;;;;;4961201;28;20026;-56
2022/04/29 09:03:39;;;;;;;6.85;2.40;;;12.50;99.60;;;;;;4975701;28;20114;-50
2022/04/29 09:06:06;;;;;;;2.92;1.90;;;12.50;98.00;;;;;;4962196;28;20134;-52
2022/04/29 09:08:38;;;;;;;3.47;2.00;;;12.40;99.00;;;;;;4958377;28;20050;-54
2022/04/29 09:11:05;;;;;;;3.35;2.13;;;12.80;98.20;;;;;;4959117;28;20035;-51
2022/04/29 09:13:35;;;;;;;2.30;1.80;;;13.30;98.40;;;;;;4953706;28;20581;-52
2022/04/29 09:16:12;;;;;;;4.45;2.33;;;13.60;97.50;;;;;;4970902;28;20034;-53
2022/04/29 09:18:55;;;;;;;2.80;2.22;;;13.80;97.40;;;;;;4971248;28;20110;-52
2022/04/29 09:21:28;;;;;;;3.30;2.03;;;13.80;96.40;;;;;;4970644;28;20063;-52
2022/04/29 09:23:59;;;;;;;6.43;2.38;;;14.00;96.50;;;;;;4971360;28;20395;-56
2022/04/29 09:26:38;;;;;;;3.85;2.30;;;13.90;96.10;;;;;;4971358;28;20086;-52
2022/04/29 09:29:12;;;;;;;4.88;2.35;;;13.70;94.00;;;;;;4972004;28;20057;-52
2022/04/29 09:31:58;;;;;;;2.15;1.40;;;13.80;94.20;;;;;;4953230;28;20058;-56
2022/04/29 09:34:42;;;;;;;2.25;1.70;;;13.60;93.10;;;;;;4985511;28;20088;-54
2022/04/29 09:37:19;;;;;;;3.80;2.00;;;13.60;93.90;;;;;;4990010;28;20041;-51
2022/04/29 09:39:54;;;;;;;6.00;2.47;;;13.90;95.70;;;;;;4990135;28;20015;-54
2022/04/29 09:42:20;;;;;;;5.03;1.98;;;14.00;92.60;;;;;;4989918;28;20031;-53
2022/04/29 09:44:46;;;;;;;3.50;1.77;;;13.70;93.50;;;;;;4953975;28;20045;-58
2022/04/29 09:47:16;;;;;;;4.97;2.47;;;13.70;92.70;;;;;;4983761;28;20113;-53
2022/04/29 09:49:55;;;;;;;4.35;2.30;;;13.40;94.20;;;;;;4982578;28;20563;-52
2022/04/29 09:52:22;;;;;;;5.53;1.85;;;13.40;93.20;;;;;;4969053;28;20424;-54
2022/04/29 09:54:49;;;;;;;2.67;2.13;;;13.50;93.80;;;;;;4979348;28;20029;-53
2022/04/29 09:57:23;;;;;;;3.53;2.33;;;13.50;94.20;;;;;;4977716;28;20038;-53
2022/04/29 09:59:54;;;;;;;3.22;1.58;;;13.80;94.30;;;;;;4954075;28;20039;-55
2022/04/29 10:02:24;;;;;;;6.60;2.15;;;13.80;92.20;;;;;;4964333;28;20395;-52
2022/04/29 10:04:52;;;;;;;4.25;2.00;;;13.60;92.60;;;;;;4952611;28;20074;-50
2022/04/29 10:07:20;;;;;;;5.18;2.20;;;13.50;93.80;;;;;;4970251;28;20061;-53
2022/04/29 10:09:53;;;;;;;5.75;2.78;;;13.70;95.80;;;;;;4969776;28;20105;-56
2022/04/29 10:12:23;;;;;;;4.10;2.85;;;14.20;95.70;;;;;;4968975;28;20478;-53
2022/04/29 10:14:53;;;;;;;4.60;2.15;;;14.10;93.90;;;;;;4969916;28;20019;-51
2022/04/29 10:23:10;;;;;;;5.25;2.22;;;13.90;94.90;;;;;;4981061;28;20605;-50
2022/04/29 10:25:40;;;;;;;5.05;2.35;;;13.80;94.60;;;;;;4965487;28;20031;-53
2022/04/29 10:28:08;;;;;;;3.50;1.90;;;13.90;93.00;;;;;;4971339;28;20149;-52
2022/04/29 10:30:36;;;;;;;4.75;2.20;;;13.80;94.10;;;;;;4973561;28;20146;-49
2022/04/29 10:33:10;;;;;;;3.58;2.20;;;14.00;93.70;;;;;;4991148;28;20466;-50
2022/04/29 10:35:50;;;;;;;2.53;2.25;;;14.30;93.20;;;;;;4975483;28;20023;-53
2022/04/29 10:38:30;;;;;;;7.57;1.98;;;14.10;91.70;;;;;;4972415;28;20034;-50
2022/04/29 10:41:12;;;;;;;2.70;1.85;;;14.10;93.20;;;;;;4971723;28;20034;-52
2022/04/29 10:43:59;;;;;;;3.13;2.17;;;14.10;92.90;;;;;;4967878;28;20035;-52
2022/04/29 10:46:38;;;;;;;5.50;1.88;;;14.30;92.60;;;;;;4980477;28;20035;-52
2022/04/29 10:49:24;;;;;;;5.28;2.10;;;14.50;91.40;;;;;;4972791;28;20038;-54
2022/04/29 10:51:51;;;;;;;5.15;2.03;;;14.50;91.30;;;;;;4964738;28;20584;-49
2022/04/29 10:54:40;;;;;;;3.88;2.95;;;14.30;91.20;;;;;;4984842;28;20467;-53
2022/04/29 10:57:12;;;;;;;2.85;1.98;;;14.30;93.00;;;;;;4955362;28;20035;-49
2022/04/29 10:59:51;;;;;;;5.72;2.60;;;14.30;91.80;;;;;;4968293;28;20085;-50
2022/04/29 11:02:33;;;;;;;4.68;2.33;;;14.00;91.70;;;;;;4985833;28;20510;-51
2022/04/29 11:05:00;;;;;;;3.67;2.30;;;13.90;92.60;;;;;;4965126;28;20034;-51
2022/04/29 11:07:43;;;;;;;5.65;3.25;;;14.00;93.10;;;;;;4972025;28;20026;-53
2022/04/29 11:10:10;;;;;;;3.00;2.30;;;14.00;92.30;;;;;;4970899;28;20117;-53
2022/04/29 11:12:39;;;;;;;3.45;2.65;;;14.20;92.50;;;;;;4999678;23;20082;-58
2022/04/29 11:15:10;;;;;;;4.28;2.13;;;14.40;92.90;;;;;;4971922;28;20026;-54
2022/04/29 11:17:37;;;;;;;2.35;2.15;;;14.80;93.20;;;;;;4972108;28;20031;-56
2022/04/29 11:20:24;;;;;;;5.03;2.22;;;15.00;91.70;;;;;;4970583;28;20428;-59
2022/04/29 11:26:02;;;;;;;2.08;1.90;;;14.70;93.00;;;;;;4970045;28;19964;-53
2022/04/29 11:28:30;;;;;;;5.05;2.10;;;14.50;90.90;;;;;;4972587;28;20022;-53
2022/04/29 11:31:01;;;;;;;4.30;3.00;;;14.40;91.10;;;;;;4965958;28;20098;-57
2022/04/29 11:33:27;;;;;;;3.78;2.55;;;14.40;92.30;;;;;;4970830;28;20057;-54
2022/04/29 11:36:01;;;;;;;3.53;2.22;;;14.20;91.00;;;;;;4964521;28;20062;-58
2022/04/29 11:38:29;;;;;;;2.83;1.98;;;14.30;93.10;;;;;;4971743;28;20565;-57
2022/04/29 11:40:55;;;;;;;4.78;2.75;;;14.50;92.10;;;;;;4971723;28;20056;-57
2022/04/29 11:43:24;;;;;;;3.95;2.30;;;14.40;91.10;;;;;;4970923;28;20106;-57
2022/04/29 11:46:00;;;;;;;7.43;2.00;;;14.30;91.00;;;;;;4970483;28;20069;-55
2022/04/29 11:48:26;;;;;;;3.67;2.13;;;14.30;88.90;;;;;;4951552;29;20114;-58
2022/04/29 11:50:55;;;;;;;4.63;2.28;;;14.40;90.10;;;;;;4958367;28;20491;-58
2022/04/29 11:53:21;;;;;;;2.92;1.98;;;14.40;89.40;;;;;;4971798;28;20023;-59
2022/04/29 11:55:50;;;;;;;5.75;1.95;;;14.20;89.10;;;;;;4971699;28;20049;-58
2022/04/29 11:58:16;;;;;;;4.22;2.03;;;14.30;90.20;;;;;;4972310;28;20034;-58
2022/04/29 12:00:52;;;;;;;2.25;1.98;;;14.50;89.60;;;;;;4972123;28;20077;-59
2022/04/29 12:03:21;;;;;;;2.33;2.10;;;14.60;85.90;;;;;;4983840;28;20030;-58
2022/04/29 12:05:47;;;;;;;3.35;2.10;;;14.60;87.50;;;;;;4968710;28;20047;-59
2022/04/29 12:08:13;;;;;;;5.63;2.05;;;14.90;90.10;;;;;;4972603;28;20507;-59
2022/04/29 12:10:43;;;;;;;6.30;2.42;;;14.80;84.80;;;;;;4972798;28;20542;-57
2022/04/29 12:13:09;;;;;;;2.67;2.10;;;14.60;88.90;;;;;;4972055;28;20027;-58
2022/04/29 12:15:38;;;;;;;3.83;2.30;;;14.90;88.30;;;;;;4972027;28;20048;-56
2022/04/29 12:18:09;;;;;;;3.45;2.10;;;14.90;86.40;;;;;;4972378;28;20019;-58
2022/04/29 12:20:37;;;;;;;4.80;2.38;;;15.20;90.90;;;;;;4972726;28;20034;-58
2022/04/29 12:23:22;;;;;;;5.65;2.53;;;15.40;84.90;;;;;;4971628;28;20105;-56
2022/04/29 12:25:48;;;;;;;4.43;2.33;;;15.30;84.00;;;;;;4970335;28;20037;-58
2022/04/29 12:28:18;;;;;;;5.25;3.45;;;15.30;87.30;;;;;;4964747;28;20030;-56
2022/04/29 12:36:27;;;;;;;3.00;2.70;;;15.10;86.90;;;;;;4970885;28;20110;-58
2022/04/29 12:39:03;;;;;;;3.88;3.03;;;15.00;88.10;;;;;;4970885;28;20543;-55
2022/04/29 12:41:29;;;;;;;7.03;3.30;;;15.00;87.10;;;;;;4971296;28;20122;-54
2022/04/29 12:44:07;;;;;;;4.85;3.30;;;15.00;88.90;;;;;;4971457;28;20574;-55
2022/04/29 12:46:33;;;;;;;3.95;2.00;;;15.10;85.50;;;;;;4962354;28;20118;-58
2022/04/29 12:48:58;;;;;;;5.53;2.80;;;15.20;84.30;;;;;;4970073;28;20515;-58
2022/04/29 12:51:26;;;;;;;5.22;3.22;;;14.90;84.50;;;;;;4970512;28;20031;-56
2022/04/29 12:53:56;;;;;;;6.65;2.83;;;14.80;87.60;;;;;;4971182;28;20022;-56
2022/04/29 12:56:35;;;;;;;4.18;2.67;;;15.00;86.80;;;;;;4970147;28;20034;-58
2022/04/29 12:59:03;;;;;;;4.25;2.70;;;14.80;86.50;;;;;;4971736;28;20019;-58
2022/04/29 13:01:40;;;;;;;6.00;3.42;;;14.90;88.50;;;;;;4970893;28;20019;-56
2022/04/29 13:04:06;;;;;;;4.50;3.05;;;14.50;87.50;;;;;;4971182;28;20062;-58
2022/04/29 13:06:33;;;;;;;4.10;3.13;;;14.40;90.20;;;;;;4971282;28;20062;-55
2022/04/29 13:09:01;;;;;;;4.15;3.50;;;14.60;90.90;;;;;;4971441;28;20406;-57
2022/04/29 13:11:26;;;;;;;7.57;3.67;;;14.60;90.50;;;;;;4970593;28;20042;-57
2022/04/29 13:13:53;;;;;;;4.65;3.65;;;14.90;91.70;;;;;;4971119;28;20022;-56
2022/04/29 13:16:20;;;;;;;4.20;3.80;;;15.00;91.20;;;;;;4970067;28;20054;-59
2022/04/29 13:18:47;;;;;;;3.97;3.58;;;15.20;91.00;;;;;;4970692;28;20491;-53
2022/04/29 13:21:14;;;;;;;6.25;3.58;;;15.20;90.90;;;;;;4971086;28;20034;-59
2022/04/29 13:23:42;;;;;;;4.40;3.63;;;15.20;90.70;;;;;;4971236;28;20065;-58
2022/04/29 13:26:08;;;;;;;4.22;3.58;;;15.10;90.30;;;;;;4969731;28;20173;-58